createdAt,value
2023-10-04T00:01:42.990Z,13.45
2023-10-04T00:04:14.283Z,13.29
2023-10-04T00:06:44.836Z,13.34
2023-10-04T00:09:16.023Z,13.13
2023-10-04T00:11:46.683Z,13.13
2023-10-04T00:14:17.222Z,13.15
2023-10-04T00:16:47.828Z,13.10
2023-10-04T00:19:20.023Z,13.10
2023-10-04T00:21:50.891Z,13.20
2023-10-04T00:24:21.903Z,13.20
2023-10-04T00:26:52.629Z,13.20
2023-10-04T00:29:24.383Z,13.18
2023-10-04T00:31:55.098Z,13.08
2023-10-04T00:34:27.257Z,13.10
2023-10-04T00:36:58.002Z,13.06
2023-10-04T00:39:28.764Z,12.98
2023-10-04T00:41:59.650Z,12.97
2023-10-04T00:44:31.955Z,12.84
2023-10-04T00:47:03.418Z,12.79
2023-10-04T00:49:35.334Z,12.76
2023-10-04T00:52:06.412Z,12.78
2023-10-04T00:54:37.033Z,12.84
2023-10-04T00:57:11.202Z,12.79
2023-10-04T00:59:44.093Z,12.75
2023-10-04T01:02:14.863Z,12.80
2023-10-04T01:04:45.621Z,12.73
2023-10-04T01:07:17.657Z,12.72
2023-10-04T01:09:48.277Z,12.67
2023-10-04T01:12:24.843Z,12.65
2023-10-04T01:14:55.612Z,12.66
2023-10-04T01:17:27.881Z,12.69
2023-10-04T01:19:58.556Z,12.66
2023-10-04T01:22:29.364Z,12.63
2023-10-04T01:25:01.205Z,12.60
2023-10-04T01:27:32.793Z,12.54
2023-10-04T01:30:03.953Z,12.55
2023-10-04T01:32:35.725Z,12.44
2023-10-04T01:35:06.994Z,12.47
2023-10-04T01:37:39.239Z,12.48
2023-10-04T01:40:13.990Z,12.42
2023-10-04T01:42:47.086Z,12.51
2023-10-04T01:45:19.557Z,12.50
2023-10-04T01:47:52.852Z,12.42
2023-10-04T01:50:25.118Z,12.51
2023-10-04T01:52:55.904Z,12.40
2023-10-04T01:55:27.455Z,12.50
2023-10-04T01:57:58.108Z,12.49
2023-10-04T02:00:29.809Z,12.34
2023-10-04T02:03:02.528Z,12.44
2023-10-04T02:05:34.850Z,12.40
2023-10-04T02:08:11.457Z,12.44
2023-10-04T02:10:46.759Z,12.38
2023-10-04T02:13:17.271Z,12.41
2023-10-04T02:15:50.021Z,12.41
2023-10-04T02:18:22.808Z,12.38
2023-10-04T02:20:55.303Z,12.37
2023-10-04T02:23:25.967Z,12.37
2023-10-04T02:25:56.887Z,12.47
2023-10-04T02:28:27.432Z,12.54
2023-10-04T02:30:58.142Z,12.58
2023-10-04T02:33:30.592Z,12.52
2023-10-04T02:36:02.408Z,12.46
2023-10-04T02:38:34.633Z,12.49
2023-10-04T02:41:07.788Z,12.46
2023-10-04T02:43:39.385Z,12.54
2023-10-04T02:46:11.937Z,12.57
2023-10-04T02:48:43.041Z,12.45
2023-10-04T02:51:14.348Z,12.48
2023-10-04T02:53:45.115Z,12.40
2023-10-04T02:56:23.504Z,12.40
2023-10-04T02:58:54.106Z,12.41
2023-10-04T03:01:26.070Z,12.44
2023-10-04T03:03:56.765Z,12.37
2023-10-04T03:06:28.019Z,12.41
2023-10-04T03:08:58.669Z,12.40
2023-10-04T03:11:29.202Z,12.33
2023-10-04T03:14:01.253Z,12.29
2023-10-04T03:16:32.025Z,12.39
2023-10-04T03:19:03.517Z,12.30
2023-10-04T03:21:35.363Z,12.34
2023-10-04T03:24:11.056Z,12.33
2023-10-04T03:26:41.637Z,12.23
2023-10-04T03:29:12.722Z,12.34
2023-10-04T03:31:43.795Z,12.28
2023-10-04T03:34:14.326Z,12.17
2023-10-04T03:36:46.484Z,12.27
2023-10-04T03:39:17.468Z,12.18
2023-10-04T03:41:51.035Z,12.29
2023-10-04T03:44:21.815Z,12.28
2023-10-04T03:46:53.946Z,12.33
2023-10-04T03:49:26.488Z,12.26
2023-10-04T03:51:57.607Z,12.32
2023-10-04T03:54:29.212Z,12.29
2023-10-04T03:57:01.644Z,12.34
2023-10-04T03:59:32.219Z,12.39
2023-10-04T04:02:04.369Z,12.36
2023-10-04T04:04:35.707Z,12.32
2023-10-04T04:07:06.358Z,12.34
2023-10-04T04:09:37.073Z,12.30
2023-10-04T04:12:08.330Z,12.28
2023-10-04T04:14:39.296Z,12.24
2023-10-04T04:17:10.399Z,12.33
2023-10-04T04:19:40.881Z,12.30
2023-10-04T04:22:11.731Z,12.28
2023-10-04T04:24:42.573Z,12.26
2023-10-04T04:27:16.959Z,12.28
2023-10-04T04:29:59.049Z,12.32
2023-10-04T04:32:30.524Z,12.34
2023-10-04T04:35:02.725Z,12.32
2023-10-04T04:37:34.520Z,12.32
2023-10-04T04:40:07.521Z,12.31
2023-10-04T04:42:39.995Z,12.32
2023-10-04T04:45:12.943Z,12.35
2023-10-04T04:47:46.211Z,12.36
2023-10-04T04:50:18.102Z,12.34
2023-10-04T04:52:48.681Z,12.27
2023-10-04T04:55:19.511Z,12.32
2023-10-04T04:57:50.121Z,12.22
2023-10-04T05:00:33.373Z,12.26
2023-10-04T05:03:05.968Z,12.18
2023-10-04T05:05:36.752Z,12.16
2023-10-04T05:08:08.820Z,12.12
2023-10-04T05:10:40.100Z,12.14
2023-10-04T05:13:12.449Z,12.19
2023-10-04T05:15:43.949Z,12.12
2023-10-04T05:18:19.182Z,12.15
2023-10-04T05:20:53.494Z,12.20
2023-10-04T05:23:26.105Z,12.23
2023-10-04T05:25:56.949Z,12.34
2023-10-04T05:28:30.476Z,12.31
2023-10-04T05:31:01.077Z,12.38
2023-10-04T05:33:32.469Z,12.33
2023-10-04T05:36:04.412Z,12.40
2023-10-04T05:38:36.425Z,12.33
2023-10-04T05:41:07.238Z,12.49
2023-10-04T05:43:37.786Z,12.48
2023-10-04T05:46:08.619Z,12.58
2023-10-04T05:48:39.432Z,12.60
2023-10-04T05:51:11.534Z,12.58
2023-10-04T05:53:42.264Z,12.54
2023-10-04T05:56:12.821Z,12.61
2023-10-04T05:58:44.374Z,12.70
2023-10-04T06:01:21.038Z,12.71
2023-10-04T06:03:51.714Z,12.90
2023-10-04T06:06:22.240Z,12.98
2023-10-04T06:08:56.661Z,12.90
2023-10-04T06:11:27.371Z,12.89
2023-10-04T06:13:58.571Z,13.00
2023-10-04T06:16:29.560Z,13.01
2023-10-04T06:19:07.652Z,13.04
2023-10-04T06:21:34.560Z,13.04
2023-10-04T06:24:05.703Z,13.12
2023-10-04T06:26:37.097Z,13.18
2023-10-04T06:29:08.288Z,13.32
2023-10-04T06:31:38.905Z,13.18
2023-10-04T06:34:10.124Z,13.28
2023-10-04T06:36:40.691Z,13.52
2023-10-04T06:39:13.911Z,13.48
2023-10-04T06:41:44.886Z,13.80
2023-10-04T06:44:15.405Z,14.12
2023-10-04T06:46:48.769Z,14.15
2023-10-04T06:49:19.555Z,14.41
2023-10-04T06:51:50.452Z,14.44
2023-10-04T06:54:21.094Z,14.26
2023-10-04T06:56:52.877Z,14.29
2023-10-04T06:59:23.536Z,14.26
2023-10-04T07:01:54.131Z,14.20
2023-10-04T07:04:25.180Z,14.28
2023-10-04T07:06:59.011Z,14.18
2023-10-04T07:09:29.806Z,14.26
2023-10-04T07:12:00.514Z,14.22
2023-10-04T07:14:34.349Z,14.24
2023-10-04T07:17:05.291Z,14.32
2023-10-04T07:19:37.530Z,14.27
2023-10-04T07:22:08.619Z,14.09
2023-10-04T07:24:39.334Z,14.29
2023-10-04T07:27:12.606Z,14.38
2023-10-04T07:29:43.134Z,14.38
2023-10-04T07:32:14.525Z,14.38
2023-10-04T07:34:45.277Z,14.33
2023-10-04T07:37:16.509Z,14.45
2023-10-04T07:39:47.016Z,14.57
2023-10-04T07:42:18.748Z,14.42
2023-10-04T07:44:50.276Z,14.36
2023-10-04T07:47:21.085Z,14.36
2023-10-04T07:49:51.839Z,14.34
2023-10-04T07:52:22.435Z,14.46
2023-10-04T07:54:54.613Z,14.67
2023-10-04T07:57:26.037Z,14.83
2023-10-04T07:59:56.692Z,14.93
2023-10-04T08:02:27.286Z,15.10
2023-10-04T08:04:58.120Z,15.46
2023-10-04T08:07:28.688Z,15.64
2023-10-04T08:09:59.696Z,15.76
2023-10-04T08:12:31.340Z,15.90
2023-10-04T08:15:03.783Z,16.01
2023-10-04T08:17:34.606Z,16.21
2023-10-04T08:20:06.128Z,16.03
2023-10-04T08:22:36.696Z,16.04
2023-10-04T08:25:08.211Z,16.01
2023-10-04T08:27:40.448Z,16.06
2023-10-04T08:30:13.551Z,16.06
2023-10-04T08:32:49.188Z,15.81
2023-10-04T08:35:32.790Z,16.08
2023-10-04T08:38:05.564Z,16.10
2023-10-04T08:40:40.351Z,16.09
2023-10-04T08:43:12.519Z,16.19
2023-10-04T08:45:44.358Z,16.50
2023-10-04T08:48:15.805Z,16.42
2023-10-04T08:50:52.094Z,16.23
2023-10-04T08:53:51.353Z,16.26
2023-10-04T08:56:23.192Z,16.18
2023-10-04T08:58:55.411Z,16.30
2023-10-04T09:01:26.754Z,16.49
2023-10-04T09:03:59.339Z,16.57
2023-10-04T09:06:30.825Z,16.58
2023-10-04T09:09:02.037Z,16.52
2023-10-04T09:11:33.608Z,16.71
2023-10-04T09:14:05.531Z,16.62
2023-10-04T09:16:36.573Z,16.64
2023-10-04T09:19:14.225Z,16.46
2023-10-04T09:21:50.996Z,16.52
2023-10-04T09:24:23.565Z,16.64
2023-10-04T09:26:56.145Z,16.47
2023-10-04T09:29:36.472Z,16.44
2023-10-04T09:32:08.575Z,16.29
2023-10-04T09:34:39.079Z,16.17
2023-10-04T09:37:19.721Z,16.22
2023-10-04T09:39:51.197Z,16.42
2023-10-04T09:42:23.631Z,16.40
2023-10-04T09:44:58.560Z,16.66
2023-10-04T09:47:32.065Z,16.49
2023-10-04T09:50:02.812Z,16.40
2023-10-04T09:52:33.502Z,16.47
2023-10-04T09:55:05.791Z,16.50
2023-10-04T09:57:39.258Z,16.69
2023-10-04T10:00:13.948Z,16.78
2023-10-04T10:02:50.809Z,16.96
2023-10-04T10:05:30.268Z,17.04
2023-10-04T10:08:05.678Z,16.62
2023-10-04T10:10:39.874Z,16.43
2023-10-04T10:13:14.517Z,16.47
2023-10-04T10:15:45.574Z,16.31
2023-10-04T10:18:18.581Z,16.32
2023-10-04T10:20:51.327Z,16.44
2023-10-04T10:23:22.316Z,16.44
2023-10-04T10:26:18.960Z,16.42
2023-10-04T10:28:51.961Z,16.17
2023-10-04T10:31:23.365Z,16.26
2023-10-04T10:33:58.667Z,16.26
2023-10-04T10:36:29.469Z,16.42
2023-10-04T10:39:00.847Z,16.24
2023-10-04T10:41:35.845Z,16.32
2023-10-04T10:44:24.972Z,16.43
2023-10-04T10:47:10.585Z,16.21
2023-10-04T10:49:43.966Z,16.27
2023-10-04T10:52:35.397Z,16.50
2023-10-04T10:55:08.562Z,16.60
2023-10-04T10:57:39.441Z,16.68
2023-10-04T11:00:22.240Z,16.92
2023-10-04T11:02:55.549Z,17.04
2023-10-04T11:05:27.613Z,17.19
2023-10-04T11:07:58.881Z,17.19
2023-10-04T11:10:31.097Z,17.40
2023-10-04T11:13:03.587Z,17.45
2023-10-04T11:15:34.311Z,17.17
2023-10-04T11:18:07.473Z,16.84
2023-10-04T11:20:40.151Z,16.95
2023-10-04T11:23:11.939Z,16.68
2023-10-04T11:25:43.780Z,16.64
2023-10-04T11:28:14.545Z,16.50
2023-10-04T11:30:45.262Z,16.90
2023-10-04T11:33:16.544Z,16.94
2023-10-04T11:35:48.570Z,17.37
2023-10-04T11:38:20.628Z,17.54
2023-10-04T11:40:52.539Z,17.82
2023-10-04T11:43:27.968Z,17.77
2023-10-04T11:46:01.850Z,17.65
2023-10-04T11:48:34.478Z,17.76
2023-10-04T11:51:07.973Z,17.49
2023-10-04T11:53:46.809Z,17.21
2023-10-04T11:56:17.452Z,17.09
2023-10-04T11:58:54.532Z,16.93
2023-10-04T12:01:27.908Z,16.66
2023-10-04T12:03:58.453Z,16.55
2023-10-04T12:06:34.554Z,16.49
2023-10-04T12:09:09.316Z,16.45
2023-10-04T12:11:40.910Z,16.40
2023-10-04T12:14:11.490Z,16.28
2023-10-04T12:16:43.629Z,16.18
2023-10-04T12:19:14.547Z,16.17
2023-10-04T12:21:46.057Z,16.08
2023-10-04T12:24:17.797Z,15.96
2023-10-04T12:26:48.285Z,16.13
2023-10-04T12:29:18.886Z,16.02
2023-10-04T12:31:51.021Z,16.14
2023-10-04T12:34:23.229Z,16.36
2023-10-04T12:36:56.132Z,16.21
2023-10-04T12:39:28.065Z,16.14
2023-10-04T12:42:00.267Z,16.12
2023-10-04T12:44:30.724Z,16.12
2023-10-04T12:47:01.372Z,16.00
2023-10-04T12:49:32.004Z,16.22
2023-10-04T12:52:05.077Z,16.36
2023-10-04T12:54:35.779Z,16.56
2023-10-04T12:57:06.380Z,16.22
2023-10-04T12:59:37.087Z,16.06
2023-10-04T13:02:08.057Z,16.20
2023-10-04T13:04:39.809Z,16.40
2023-10-04T13:07:11.241Z,16.85
2023-10-04T13:09:56.114Z,17.03
2023-10-04T13:12:17.192Z,17.19
2023-10-04T13:14:47.753Z,17.48
2023-10-04T13:17:19.758Z,17.45
2023-10-04T13:19:50.435Z,17.38
2023-10-04T13:22:22.619Z,17.51
2023-10-04T13:24:56.448Z,17.31
2023-10-04T13:27:26.345Z,17.04
2023-10-04T13:29:56.883Z,17.03
2023-10-04T13:32:28.956Z,17.00
2023-10-04T13:35:02.333Z,16.77
2023-10-04T13:37:32.930Z,16.77
2023-10-04T13:40:05.926Z,16.87
2023-10-04T13:42:36.998Z,16.79
2023-10-04T13:45:10.174Z,16.83
2023-10-04T13:47:42.730Z,17.30
2023-10-04T13:50:14.512Z,17.62
2023-10-04T13:52:46.863Z,17.88
2023-10-04T13:55:17.554Z,18.12
2023-10-04T13:57:49.292Z,18.33
2023-10-04T14:00:25.985Z,18.26
2023-10-04T14:02:58.981Z,18.46
2023-10-04T14:05:31.633Z,18.62
2023-10-04T14:08:04.924Z,18.35
2023-10-04T14:10:35.465Z,18.14
2023-10-04T14:13:08.300Z,18.04
2023-10-04T14:15:38.972Z,17.77
2023-10-04T14:18:10.909Z,17.64
2023-10-04T14:20:42.797Z,17.44
2023-10-04T14:23:13.426Z,17.28
2023-10-04T14:25:44.046Z,17.17
2023-10-04T14:28:20.341Z,17.18
2023-10-04T14:30:59.051Z,17.09
2023-10-04T14:33:32.886Z,17.22
2023-10-04T14:36:03.419Z,17.34
2023-10-04T14:38:34.537Z,17.45
2023-10-04T14:41:05.859Z,17.46
2023-10-04T14:43:37.239Z,17.72
2023-10-04T14:46:09.581Z,17.47
2023-10-04T14:48:43.676Z,17.44
2023-10-04T14:51:13.912Z,17.41
2023-10-04T14:53:44.600Z,17.18
2023-10-04T14:56:15.199Z,17.04
2023-10-04T14:58:45.761Z,16.91
2023-10-04T15:01:18.532Z,16.72
2023-10-04T15:03:51.046Z,16.68
2023-10-04T15:06:23.794Z,16.64
2023-10-04T15:08:58.447Z,16.65
2023-10-04T15:11:34.460Z,16.55
2023-10-04T15:14:07.074Z,16.62
2023-10-04T15:16:37.920Z,16.58
2023-10-04T15:19:09.093Z,16.47
2023-10-04T15:21:41.844Z,16.53
2023-10-04T15:24:14.290Z,16.48
2023-10-04T15:26:46.774Z,16.44
2023-10-04T15:29:18.136Z,16.40
2023-10-04T15:31:50.685Z,16.41
2023-10-04T15:34:21.324Z,16.44
2023-10-04T15:36:52.117Z,16.39
2023-10-04T15:39:24.209Z,16.28
2023-10-04T15:41:56.747Z,16.39
2023-10-04T15:44:28.106Z,16.26
2023-10-04T15:47:00.326Z,16.22
2023-10-04T15:49:31.002Z,16.22
2023-10-04T15:52:03.086Z,16.16
2023-10-04T15:54:33.769Z,16.17
2023-10-04T15:57:05.090Z,16.12
2023-10-04T15:59:35.827Z,16.03
2023-10-04T16:02:11.974Z,16.07
2023-10-04T16:04:42.695Z,16.06
2023-10-04T16:07:14.475Z,16.05
2023-10-04T16:09:46.616Z,16.00
2023-10-04T16:12:20.317Z,15.94
2023-10-04T16:14:50.915Z,15.74
2023-10-04T16:17:24.573Z,15.69
2023-10-04T16:19:55.914Z,15.70
2023-10-04T16:22:28.427Z,15.56
2023-10-04T16:25:00.385Z,15.60
2023-10-04T16:27:31.775Z,15.60
2023-10-04T16:30:02.693Z,15.60
2023-10-04T16:32:33.991Z,15.51
2023-10-04T16:35:05.866Z,15.44
2023-10-04T16:37:36.584Z,15.41
2023-10-04T16:40:08.513Z,15.33
2023-10-04T16:42:42.221Z,15.42
2023-10-04T16:45:19.628Z,15.27
2023-10-04T16:47:51.090Z,15.32
2023-10-04T16:50:26.468Z,15.36
2023-10-04T16:52:57.198Z,15.27
2023-10-04T16:55:28.902Z,15.24
2023-10-04T16:57:59.675Z,15.19
2023-10-04T17:00:32.444Z,15.12
2023-10-04T17:03:03.604Z,15.18
2023-10-04T17:05:35.573Z,15.05
2023-10-04T17:08:07.639Z,15.12
2023-10-04T17:10:46.822Z,15.05
2023-10-04T17:13:17.680Z,15.08
2023-10-04T17:15:49.005Z,15.01
2023-10-04T17:18:19.883Z,15.06
2023-10-04T17:20:53.070Z,15.08
2023-10-04T17:23:23.659Z,15.04
2023-10-04T17:25:54.629Z,15.03
2023-10-04T17:28:26.389Z,15.07
2023-10-04T17:30:57.752Z,15.00
2023-10-04T17:33:29.991Z,15.02
2023-10-04T17:36:01.026Z,15.00
2023-10-04T17:38:31.977Z,14.89
2023-10-04T17:41:02.922Z,14.97
2023-10-04T17:43:36.651Z,14.92
2023-10-04T17:46:08.586Z,14.91
2023-10-04T17:48:42.305Z,14.96
2023-10-04T17:51:14.560Z,14.88
2023-10-04T17:53:48.119Z,14.98
2023-10-04T17:56:21.707Z,15.00
2023-10-04T17:58:52.764Z,14.86
2023-10-04T18:01:23.622Z,14.90
2023-10-04T18:03:54.534Z,14.93
2023-10-04T18:06:26.786Z,14.95
2023-10-04T18:08:57.381Z,14.92
2023-10-04T18:11:28.702Z,14.84
2023-10-04T18:13:59.615Z,14.89
2023-10-04T18:16:31.860Z,14.85
2023-10-04T18:19:03.486Z,14.86
2023-10-04T18:21:34.352Z,14.79
2023-10-04T18:24:06.811Z,14.80
2023-10-04T18:26:39.639Z,14.87
2023-10-04T18:29:11.924Z,14.72
2023-10-04T18:31:42.851Z,14.80
2023-10-04T18:34:13.802Z,14.80
2023-10-04T18:36:46.153Z,14.90
2023-10-04T18:39:18.918Z,14.86
2023-10-04T18:41:49.644Z,14.96
2023-10-04T18:44:21.894Z,14.87
2023-10-04T18:46:53.763Z,14.84
2023-10-04T18:49:25.372Z,14.77
2023-10-04T18:51:56.711Z,14.87
2023-10-04T18:54:27.427Z,14.88
2023-10-04T18:56:58.115Z,14.93
2023-10-04T18:59:33.004Z,14.88
2023-10-04T19:02:03.823Z,14.88
2023-10-04T19:04:35.202Z,14.85
2023-10-04T19:07:12.308Z,14.80
2023-10-04T19:09:43.546Z,14.78
2023-10-04T19:12:15.147Z,14.84
2023-10-04T19:14:45.742Z,14.81
2023-10-04T19:17:18.011Z,14.81
2023-10-04T19:19:50.306Z,14.76
2023-10-04T19:22:23.160Z,14.90
2023-10-04T19:24:54.715Z,14.80
2023-10-04T19:27:26.634Z,14.86
2023-10-04T19:29:57.504Z,14.87
2023-10-04T19:32:28.470Z,14.83
2023-10-04T19:34:59.046Z,14.82
2023-10-04T19:37:29.982Z,14.74
2023-10-04T19:40:03.213Z,14.71
2023-10-04T19:42:33.434Z,14.68
2023-10-04T19:45:04.670Z,14.63
2023-10-04T19:47:35.734Z,14.70
2023-10-04T19:50:06.957Z,14.67
2023-10-04T19:52:37.684Z,14.61
2023-10-04T19:55:11.457Z,14.72
2023-10-04T19:57:42.745Z,14.75
2023-10-04T20:00:23.922Z,14.69
2023-10-04T20:02:56.869Z,14.64
2023-10-04T20:05:33.984Z,14.67
2023-10-04T20:08:08.917Z,14.62
2023-10-04T20:10:41.786Z,14.63
2023-10-04T20:13:14.081Z,14.58
2023-10-04T20:15:46.466Z,14.60
2023-10-04T20:18:20.080Z,14.60
2023-10-04T20:20:52.181Z,14.55
2023-10-04T20:23:25.269Z,14.55
2023-10-04T20:26:03.220Z,14.54
2023-10-04T20:28:34.585Z,14.48
2023-10-04T20:31:06.045Z,14.48
2023-10-04T20:33:37.333Z,14.57
2023-10-04T20:36:08.444Z,14.50
2023-10-04T20:38:40.806Z,14.59
2023-10-04T20:41:15.292Z,14.58
2023-10-04T20:43:45.804Z,14.48
2023-10-04T20:46:19.261Z,14.45
2023-10-04T20:48:49.924Z,14.36
2023-10-04T20:51:22.551Z,14.44
2023-10-04T20:53:53.329Z,14.40
2023-10-04T20:56:25.790Z,14.40
2023-10-04T20:58:58.083Z,14.39
2023-10-04T21:01:28.812Z,14.40
2023-10-04T21:04:02.717Z,14.31
2023-10-04T21:06:35.094Z,14.41
2023-10-04T21:09:09.432Z,14.30
2023-10-04T21:11:39.930Z,14.32
2023-10-04T21:14:11.213Z,14.25
2023-10-04T21:16:42.444Z,14.13
2023-10-04T21:19:14.880Z,14.28
2023-10-04T21:21:47.465Z,14.25
2023-10-04T21:24:19.436Z,14.18
2023-10-04T21:26:49.999Z,14.10
2023-10-04T21:29:20.603Z,14.06
2023-10-04T21:31:53.098Z,14.12
2023-10-04T21:34:24.761Z,13.94
2023-10-04T21:36:56.038Z,13.84
2023-10-04T21:39:32.524Z,13.82
2023-10-04T21:42:06.513Z,13.78
2023-10-04T21:44:42.290Z,13.73
2023-10-04T21:47:17.440Z,13.72
2023-10-04T21:49:48.441Z,13.77
2023-10-04T21:52:20.746Z,13.60
2023-10-04T21:54:51.754Z,13.56
2023-10-04T21:57:27.915Z,13.50
2023-10-04T22:00:00.600Z,13.48
2023-10-04T22:02:33.345Z,13.60
2023-10-04T22:05:05.629Z,13.35
2023-10-04T22:07:38.612Z,13.36
2023-10-04T22:10:11.871Z,13.44
2023-10-04T22:12:43.230Z,13.40
2023-10-04T22:15:14.680Z,13.38
2023-10-04T22:17:47.266Z,13.34
2023-10-04T22:20:18.339Z,13.32
2023-10-04T22:22:49.665Z,13.31
2023-10-04T22:25:22.563Z,13.28
2023-10-04T22:27:55.547Z,13.24
2023-10-04T22:30:27.881Z,13.18
2023-10-04T22:32:58.605Z,13.24
2023-10-04T22:35:33.792Z,13.26
2023-10-04T22:38:05.575Z,13.12
2023-10-04T22:40:36.149Z,13.19
2023-10-04T22:43:11.635Z,13.18
2023-10-04T22:45:42.507Z,13.12
2023-10-04T22:48:13.730Z,13.15
2023-10-04T22:50:44.538Z,13.20
2023-10-04T22:53:15.309Z,13.18
2023-10-04T22:55:46.393Z,13.24
2023-10-04T22:58:18.762Z,13.22
2023-10-04T23:00:49.864Z,13.14
2023-10-04T23:03:24.464Z,13.12
2023-10-04T23:05:54.537Z,13.08
2023-10-04T23:08:26.053Z,13.18
2023-10-04T23:10:56.913Z,13.08
2023-10-04T23:13:27.683Z,13.00
2023-10-04T23:16:00.487Z,13.00
2023-10-04T23:18:32.958Z,12.95
2023-10-04T23:21:12.579Z,12.99
2023-10-04T23:23:44.867Z,12.92
2023-10-04T23:26:17.272Z,12.83
2023-10-04T23:28:48.367Z,12.94
2023-10-04T23:31:21.387Z,12.87
2023-10-04T23:33:54.022Z,12.78
2023-10-04T23:36:27.699Z,12.76
2023-10-04T23:39:00.030Z,12.69
2023-10-04T23:41:37.612Z,12.72
2023-10-04T23:44:10.473Z,12.72
2023-10-04T23:46:41.602Z,12.78
2023-10-04T23:49:14.123Z,12.69
2023-10-04T23:51:45.004Z,12.60
2023-10-04T23:54:25.421Z,12.66
2023-10-04T23:56:57.600Z,12.58
2023-10-04T23:59:28.936Z,12.57
